sensor_id;sensor_type;location;lat;lon;timestamp;pressure;altitude;pressure_sealevel;temperature;humidity
74895;BME280;63447;49.446;8.666;2024-03-17T00:02:20;101148.56;;;7.75;100.00
74895;BME280;63447;49.446;8.666;2024-03-17T00:04:47;101152.88;;;7.57;100.00
74895;BME280;63447;49.446;8.666;2024-03-17T00:07:13;101143.75;;;7.62;100.00
74895;BME280;63447;49.446;8.666;2024-03-17T00:09:43;101142.19;;;7.56;99.18
74895;BME280;63447;49.446;8.666;2024-03-17T00:12:12;101140.69;;;7.44;98.69
74895;BME280;63447;49.446;8.666;2024-03-17T00:14:39;101142.09;;;7.42;98.46
74895;BME280;63447;49.446;8.666;2024-03-17T00:17:08;101130.28;;;7.41;98.78
74895;BME280;63447;49.446;8.666;2024-03-17T00:19:35;101145.47;;;7.58;98.01
74895;BME280;63447;49.446;8.666;2024-03-17T00:22:01;101134.22;;;7.54;97.85
74895;BME280;63447;49.446;8.666;2024-03-17T00:24:29;101130.66;;;7.54;98.05
74895;BME280;63447;49.446;8.666;2024-03-17T00:27:05;101149.19;;;7.67;98.03
74895;BME280;63447;49.446;8.666;2024-03-17T00:29:34;101132.84;;;7.57;96.72
74895;BME280;63447;49.446;8.666;2024-03-17T00:31:59;101115.78;;;7.36;96.05
74895;BME280;63447;49.446;8.666;2024-03-17T00:34:27;101132.16;;;7.46;97.12
74895;BME280;63447;49.446;8.666;2024-03-17T00:36:53;101091.81;;;7.23;95.71
74895;BME280;63447;49.446;8.666;2024-03-17T00:39:18;101111.69;;;7.09;96.41
74895;BME280;63447;49.446;8.666;2024-03-17T00:41:47;101115.22;;;6.86;100.00
74895;BME280;63447;49.446;8.666;2024-03-17T00:44:14;101114.88;;;6.93;100.00
74895;BME280;63447;49.446;8.666;2024-03-17T00:46:43;101111.22;;;7.02;100.00
74895;BME280;63447;49.446;8.666;2024-03-17T00:49:13;101113.09;;;7.07;100.00
74895;BME280;63447;49.446;8.666;2024-03-17T00:51:39;101118.75;;;7.15;100.00
74895;BME280;63447;49.446;8.666;2024-03-17T00:54:04;101111.88;;;7.18;100.00
74895;BME280;63447;49.446;8.666;2024-03-17T00:56:29;101105.03;;;7.15;99.41
74895;BME280;63447;49.446;8.666;2024-03-17T00:58:57;101101.25;;;7.11;100.00
74895;BME280;63447;49.446;8.666;2024-03-17T01:01:25;101102.41;;;7.05;100.00
74895;BME280;63447;49.446;8.666;2024-03-17T01:03:50;101088.00;;;6.95;100.00
74895;BME280;63447;49.446;8.666;2024-03-17T01:06:20;101112.03;;;7.03;100.00
74895;BME280;63447;49.446;8.666;2024-03-17T01:08:48;101103.50;;;7.04;100.00
74895;BME280;63447;49.446;8.666;2024-03-17T01:11:15;101087.22;;;6.89;99.29
74895;BME280;63447;49.446;8.666;2024-03-17T01:13:44;101081.09;;;6.97;98.29
74895;BME280;63447;49.446;8.666;2024-03-17T01:16:15;101073.78;;;6.88;99.02
74895;BME280;63447;49.446;8.666;2024-03-17T01:18:45;101077.34;;;6.88;98.84
74895;BME280;63447;49.446;8.666;2024-03-17T01:21:13;101071.34;;;6.86;99.86
74895;BME280;63447;49.446;8.666;2024-03-17T01:23:43;101083.38;;;6.90;99.81
74895;BME280;63447;49.446;8.666;2024-03-17T01:26:08;101080.34;;;6.92;99.09
74895;BME280;63447;49.446;8.666;2024-03-17T01:28:34;101086.06;;;6.95;99.22
74895;BME280;63447;49.446;8.666;2024-03-17T01:30:59;101082.78;;;6.93;99.47
74895;BME280;63447;49.446;8.666;2024-03-17T01:33:27;101065.59;;;6.82;99.23
74895;BME280;63447;49.446;8.666;2024-03-17T01:35:57;101070.84;;;6.79;100.00
74895;BME280;63447;49.446;8.666;2024-03-17T01:38:22;101064.78;;;6.82;100.00
74895;BME280;63447;49.446;8.666;2024-03-17T01:40:50;101066.19;;;6.79;100.00
74895;BME280;63447;49.446;8.666;2024-03-17T01:43:20;101047.41;;;6.68;99.98
74895;BME280;63447;49.446;8.666;2024-03-17T01:45:46;101062.09;;;6.77;100.00
74895;BME280;63447;49.446;8.666;2024-03-17T01:48:14;101053.38;;;6.75;100.00
74895;BME280;63447;49.446;8.666;2024-03-17T01:50:44;101050.19;;;6.63;99.98
74895;BME280;63447;49.446;8.666;2024-03-17T01:53:11;101036.78;;;6.56;99.85
74895;BME280;63447;49.446;8.666;2024-03-17T01:55:39;101048.00;;;6.60;99.81
74895;BME280;63447;49.446;8.666;2024-03-17T01:58:07;101033.00;;;6.52;99.68
74895;BME280;63447;49.446;8.666;2024-03-17T02:00:36;101040.66;;;6.55;100.00
74895;BME280;63447;49.446;8.666;2024-03-17T02:03:06;101043.09;;;6.57;100.00
74895;BME280;63447;49.446;8.666;2024-03-17T02:05:32;101035.53;;;6.49;99.90
74895;BME280;63447;49.446;8.666;2024-03-17T02:07:59;101036.91;;;6.46;100.00
74895;BME280;63447;49.446;8.666;2024-03-17T02:10:29;101031.44;;;6.46;100.00
74895;BME280;63447;49.446;8.666;2024-03-17T02:12:54;101021.91;;;6.38;100.00
74895;BME280;63447;49.446;8.666;2024-03-17T02:15:20;101015.06;;;6.36;100.00
74895;BME280;63447;49.446;8.666;2024-03-17T02:17:45;101023.22;;;6.46;100.00
74895;BME280;63447;49.446;8.666;2024-03-17T02:20:13;101027.88;;;6.45;100.00
74895;BME280;63447;49.446;8.666;2024-03-17T02:22:41;101013.16;;;6.36;100.00
74895;BME280;63447;49.446;8.666;2024-03-17T02:25:07;101024.03;;;6.46;100.00
74895;BME280;63447;49.446;8.666;2024-03-17T02:27:33;101022.66;;;6.15;100.00
74895;BME280;63447;49.446;8.666;2024-03-17T02:29:59;101003.47;;;6.15;100.00
74895;BME280;63447;49.446;8.666;2024-03-17T02:32:24;100976.53;;;5.93;100.00
74895;BME280;63447;49.446;8.666;2024-03-17T02:34:52;100989.28;;;6.08;100.00
74895;BME280;63447;49.446;8.666;2024-03-17T02:37:18;101018.50;;;6.23;100.00
74895;BME280;63447;49.446;8.666;2024-03-17T02:39:44;101004.56;;;6.14;100.00
74895;BME280;63447;49.446;8.666;2024-03-17T02:42:10;101014.94;;;6.22;100.00
74895;BME280;63447;49.446;8.666;2024-03-17T02:44:37;101006.50;;;6.13;100.00
74895;BME280;63447;49.446;8.666;2024-03-17T02:47:04;101006.75;;;6.17;100.00
74895;BME280;63447;49.446;8.666;2024-03-17T02:49:34;100998.56;;;6.12;100.00
74895;BME280;63447;49.446;8.666;2024-03-17T02:52:07;100991.44;;;6.11;100.00
74895;BME280;63447;49.446;8.666;2024-03-17T02:54:37;100995.53;;;6.13;100.00
74895;BME280;63447;49.446;8.666;2024-03-17T02:57:03;100983.03;;;6.02;100.00
74895;BME280;63447;49.446;8.666;2024-03-17T02:59:29;100959.03;;;5.89;100.00
74895;BME280;63447;49.446;8.666;2024-03-17T03:01:58;101009.50;;;6.17;100.00
74895;BME280;63447;49.446;8.666;2024-03-17T03:04:26;101006.22;;;6.15;100.00
74895;BME280;63447;49.446;8.666;2024-03-17T03:06:52;100992.31;;;6.06;100.00
74895;BME280;63447;49.446;8.666;2024-03-17T03:09:17;101013.88;;;6.18;100.00
74895;BME280;63447;49.446;8.666;2024-03-17T03:11:53;101021.22;;;6.23;99.86
74895;BME280;63447;49.446;8.666;2024-03-17T03:14:19;101004.53;;;6.19;99.71
74895;BME280;63447;49.446;8.666;2024-03-17T03:16:44;100996.44;;;6.04;99.91
74895;BME280;63447;49.446;8.666;2024-03-17T03:19:10;101018.84;;;6.11;100.00
74895;BME280;63447;49.446;8.666;2024-03-17T03:21:37;100998.09;;;6.00;98.84
74895;BME280;63447;49.446;8.666;2024-03-17T03:24:03;101009.88;;;6.00;98.00
74895;BME280;63447;49.446;8.666;2024-03-17T03:26:28;101008.06;;;5.91;98.97
74895;BME280;63447;49.446;8.666;2024-03-17T03:28:54;101016.59;;;5.74;100.00
74895;BME280;63447;49.446;8.666;2024-03-17T03:31:20;101000.59;;;5.52;100.00
74895;BME280;63447;49.446;8.666;2024-03-17T03:33:48;101024.00;;;5.73;100.00
74895;BME280;63447;49.446;8.666;2024-03-17T03:36:16;101027.53;;;5.79;100.00
74895;BME280;63447;49.446;8.666;2024-03-17T03:38:46;100963.94;;;5.48;100.00
74895;BME280;63447;49.446;8.666;2024-03-17T03:41:15;101020.94;;;5.90;100.00
74895;BME280;63447;49.446;8.666;2024-03-17T03:43:42;101014.88;;;5.93;100.00
74895;BME280;63447;49.446;8.666;2024-03-17T03:46:10;101021.66;;;6.01;100.00
74895;BME280;63447;49.446;8.666;2024-03-17T03:48:36;101023.56;;;6.00;100.00
74895;BME280;63447;49.446;8.666;2024-03-17T03:51:05;101019.16;;;6.04;100.00
74895;BME280;63447;49.446;8.666;2024-03-17T03:53:34;101022.16;;;6.08;100.00
74895;BME280;63447;49.446;8.666;2024-03-17T03:56:00;101027.88;;;6.11;100.00
74895;BME280;63447;49.446;8.666;2024-03-17T03:58:27;101030.09;;;6.09;100.00
74895;BME280;63447;49.446;8.666;2024-03-17T04:00:55;100976.34;;;5.74;100.00
74895;BME280;63447;49.446;8.666;2024-03-17T04:03:22;100999.53;;;5.97;100.00
74895;BME280;63447;49.446;8.666;2024-03-17T04:05:47;101020.53;;;6.07;100.00
74895;BME280;63447;49.446;8.666;2024-03-17T04:08:15;100996.25;;;5.95;100.00
74895;BME280;63447;49.446;8.666;2024-03-17T04:10:42;101018.03;;;6.10;100.00
74895;BME280;63447;49.446;8.666;2024-03-17T04:13:08;101006.00;;;6.06;100.00
74895;BME280;63447;49.446;8.666;2024-03-17T04:15:37;101009.06;;;6.00;100.00
74895;BME280;63447;49.446;8.666;2024-03-17T04:18:05;101014.00;;;5.98;100.00
74895;BME280;63447;49.446;8.666;2024-03-17T04:20:32;100985.94;;;5.77;100.00
74895;BME280;63447;49.446;8.666;2024-03-17T04:22:58;100978.06;;;5.70;100.00
74895;BME280;63447;49.446;8.666;2024-03-17T04:25:24;100994.09;;;5.82;100.00
74895;BME280;63447;49.446;8.666;2024-03-17T04:27:49;100994.75;;;5.69;100.00
74895;BME280;63447;49.446;8.666;2024-03-17T04:30:15;100993.16;;;5.63;100.00
74895;BME280;63447;49.446;8.666;2024-03-17T04:32:41;101012.00;;;5.69;100.00
74895;BME280;63447;49.446;8.666;2024-03-17T04:35:06;101018.63;;;5.63;100.00
74895;BME280;63447;49.446;8.666;2024-03-17T04:37:32;100981.53;;;5.37;100.00
74895;BME280;63447;49.446;8.666;2024-03-17T04:40:04;100985.41;;;5.31;100.00
74895;BME280;63447;49.446;8.666;2024-03-17T04:42:29;101007.28;;;5.36;100.00
74895;BME280;63447;49.446;8.666;2024-03-17T04:44:55;101010.00;;;5.36;100.00
74895;BME280;63447;49.446;8.666;2024-03-17T04:47:20;101019.88;;;5.32;100.00
74895;BME280;63447;49.446;8.666;2024-03-17T04:49:46;100984.41;;;5.17;100.00
74895;BME280;63447;49.446;8.666;2024-03-17T04:52:12;101011.66;;;5.37;100.00
74895;BME280;63447;49.446;8.666;2024-03-17T04:54:38;101011.66;;;5.32;100.00
74895;BME280;63447;49.446;8.666;2024-03-17T04:57:03;100996.09;;;5.27;100.00
74895;BME280;63447;49.446;8.666;2024-03-17T04:59:29;101014.91;;;5.39;100.00
74895;BME280;63447;49.446;8.666;2024-03-17T05:01:54;101002.91;;;5.35;100.00
74895;BME280;63447;49.446;8.666;2024-03-17T05:04:20;101009.66;;;5.47;100.00
74895;BME280;63447;49.446;8.666;2024-03-17T05:06:50;101001.78;;;5.41;100.00
74895;BME280;63447;49.446;8.666;2024-03-17T05:09:16;101002.25;;;5.53;100.00
74895;BME280;63447;49.446;8.666;2024-03-17T05:11:44;101004.97;;;5.53;100.00
74895;BME280;63447;49.446;8.666;2024-03-17T05:14:11;100986.72;;;5.43;100.00
74895;BME280;63447;49.446;8.666;2024-03-17T05:16:39;100995.97;;;5.47;100.00
74895;BME280;63447;49.446;8.666;2024-03-17T05:19:07;101010.72;;;5.57;100.00
74895;BME280;63447;49.446;8.666;2024-03-17T05:21:34;100991.84;;;5.50;100.00
74895;BME280;63447;49.446;8.666;2024-03-17T05:24:01;101012.00;;;5.69;100.00
74895;BME280;63447;49.446;8.666;2024-03-17T05:26:26;101002.44;;;5.67;100.00
74895;BME280;63447;49.446;8.666;2024-03-17T05:28:52;100991.81;;;5.55;100.00
74895;BME280;63447;49.446;8.666;2024-03-17T05:31:18;101010.84;;;5.75;100.00
74895;BME280;63447;49.446;8.666;2024-03-17T05:33:48;101011.13;;;5.74;100.00
74895;BME280;63447;49.446;8.666;2024-03-17T05:36:14;100970.78;;;5.51;100.00
74895;BME280;63447;49.446;8.666;2024-03-17T05:38:39;101004.41;;;5.56;100.00
74895;BME280;63447;49.446;8.666;2024-03-17T05:41:07;101015.88;;;5.63;100.00
74895;BME280;63447;49.446;8.666;2024-03-17T05:43:36;101003.69;;;5.45;100.00
74895;BME280;63447;49.446;8.666;2024-03-17T05:46:09;101012.91;;;5.55;100.00
74895;BME280;63447;49.446;8.666;2024-03-17T05:48:38;101015.91;;;5.58;100.00
74895;BME280;63447;49.446;8.666;2024-03-17T05:51:08;101000.34;;;5.49;100.00
74895;BME280;63447;49.446;8.666;2024-03-17T05:53:37;101013.69;;;5.60;100.00
74895;BME280;63447;49.446;8.666;2024-03-17T05:56:05;100996.22;;;5.51;100.00
74895;BME280;63447;49.446;8.666;2024-03-17T05:58:32;101003.25;;;5.67;100.00
74895;BME280;63447;49.446;8.666;2024-03-17T06:01:02;101015.47;;;5.80;100.00
74895;BME280;63447;49.446;8.666;2024-03-17T06:03:27;101009.19;;;5.79;99.42
74895;BME280;63447;49.446;8.666;2024-03-17T06:05:52;101008.59;;;5.88;99.87
74895;BME280;63447;49.446;8.666;2024-03-17T06:08:18;101006.94;;;5.92;98.21
74895;BME280;63447;49.446;8.666;2024-03-17T06:10:46;100997.41;;;5.79;99.99
74895;BME280;63447;49.446;8.666;2024-03-17T06:13:14;100999.56;;;5.87;99.07
74895;BME280;63447;49.446;8.666;2024-03-17T06:15:48;101014.50;;;5.66;100.00
74895;BME280;63447;49.446;8.666;2024-03-17T06:18:14;101018.75;;;5.82;99.37
74895;BME280;63447;49.446;8.666;2024-03-17T06:20:43;101001.72;;;5.95;99.78
74895;BME280;63447;49.446;8.666;2024-03-17T06:23:10;101011.72;;;6.10;99.15
74895;BME280;63447;49.446;8.666;2024-03-17T06:25:45;100991.69;;;6.15;98.65
74895;BME280;63447;49.446;8.666;2024-03-17T06:28:13;101016.47;;;6.33;98.49
74895;BME280;63447;49.446;8.666;2024-03-17T06:30:43;101009.22;;;6.47;98.20
74895;BME280;63447;49.446;8.666;2024-03-17T06:33:12;100998.53;;;6.46;98.38
74895;BME280;63447;49.446;8.666;2024-03-17T06:35:40;100999.28;;;6.52;97.89
74895;BME280;63447;49.446;8.666;2024-03-17T06:38:05;100996.97;;;6.64;98.03
74895;BME280;63447;49.446;8.666;2024-03-17T06:40:35;101000.94;;;6.76;98.16
74895;BME280;63447;49.446;8.666;2024-03-17T06:43:03;101000.31;;;6.85;98.06
74895;BME280;63447;49.446;8.666;2024-03-17T06:45:29;100997.97;;;6.97;97.81
74895;BME280;63447;49.446;8.666;2024-03-17T06:47:56;100991.81;;;7.05;97.52
74895;BME280;63447;49.446;8.666;2024-03-17T06:50:22;100988.97;;;7.15;96.47
74895;BME280;63447;49.446;8.666;2024-03-17T06:52:47;100991.22;;;7.32;95.57
74895;BME280;63447;49.446;8.666;2024-03-17T06:55:13;101001.00;;;7.38;93.99
74895;BME280;63447;49.446;8.666;2024-03-17T06:57:42;100988.41;;;7.37;92.99
74895;BME280;63447;49.446;8.666;2024-03-17T07:00:12;100995.22;;;7.39;92.38
74895;BME280;63447;49.446;8.666;2024-03-17T07:02:41;100969.34;;;7.27;91.92
74895;BME280;63447;49.446;8.666;2024-03-17T07:05:11;100983.97;;;7.41;91.42
74895;BME280;63447;49.446;8.666;2024-03-17T07:07:39;100990.72;;;7.48;93.15
74895;BME280;63447;49.446;8.666;2024-03-17T07:10:05;100969.06;;;7.47;91.82
74895;BME280;63447;49.446;8.666;2024-03-17T07:12:33;100995.91;;;7.69;90.96
74895;BME280;63447;49.446;8.666;2024-03-17T07:14:59;100991.09;;;7.79;92.15
74895;BME280;63447;49.446;8.666;2024-03-17T07:17:27;100978.72;;;7.96;91.15
74895;BME280;63447;49.446;8.666;2024-03-17T07:19:52;100988.19;;;8.22;89.96
74895;BME280;63447;49.446;8.666;2024-03-17T07:22:18;100981.94;;;8.35;87.22
74895;BME280;63447;49.446;8.666;2024-03-17T07:24:43;100994.69;;;8.59;87.44
74895;BME280;63447;49.446;8.666;2024-03-17T07:27:11;100974.84;;;8.48;85.91
74895;BME280;63447;49.446;8.666;2024-03-17T07:29:39;100996.97;;;8.70;87.30
74895;BME280;63447;49.446;8.666;2024-03-17T07:32:06;100979.13;;;8.68;87.55
74895;BME280;63447;49.446;8.666;2024-03-17T07:34:32;101000.53;;;8.84;87.30
74895;BME280;63447;49.446;8.666;2024-03-17T07:36:58;101000.94;;;8.92;87.50
74895;BME280;63447;49.446;8.666;2024-03-17T07:39:30;100992.41;;;8.79;88.82
74895;BME280;63447;49.446;8.666;2024-03-17T07:42:03;100997.38;;;8.91;89.21
74895;BME280;63447;49.446;8.666;2024-03-17T07:44:34;100986.38;;;8.91;88.59
74895;BME280;63447;49.446;8.666;2024-03-17T07:47:03;101003.59;;;9.10;88.29
74895;BME280;63447;49.446;8.666;2024-03-17T07:49:29;100997.78;;;9.26;88.24
74895;BME280;63447;49.446;8.666;2024-03-17T07:51:57;100986.44;;;9.41;86.63
74895;BME280;63447;49.446;8.666;2024-03-17T07:54:26;100988.66;;;9.39;84.60
74895;BME280;63447;49.446;8.666;2024-03-17T07:56:51;100992.38;;;9.70;82.96
74895;BME280;63447;49.446;8.666;2024-03-17T07:59:19;100970.47;;;9.87;85.02
74895;BME280;63447;49.446;8.666;2024-03-17T08:01:47;100990.94;;;10.17;83.21
74895;BME280;63447;49.446;8.666;2024-03-17T08:04:12;100969.69;;;10.40;80.67
74895;BME280;63447;49.446;8.666;2024-03-17T08:06:40;100998.91;;;10.64;79.64
74895;BME280;63447;49.446;8.666;2024-03-17T08:09:09;101011.09;;;10.71;76.70
74895;BME280;63447;49.446;8.666;2024-03-17T08:11:38;101002.81;;;10.71;76.10
74895;BME280;63447;49.446;8.666;2024-03-17T08:14:11;101018.13;;;10.77;75.25
74895;BME280;63447;49.446;8.666;2024-03-17T08:16:36;101017.44;;;10.72;74.62
74895;BME280;63447;49.446;8.666;2024-03-17T08:19:04;101034.13;;;10.67;74.69
74895;BME280;63447;49.446;8.666;2024-03-17T08:21:32;101010.69;;;10.56;75.17
74895;BME280;63447;49.446;8.666;2024-03-17T08:23:57;101025.22;;;10.70;74.83
74895;BME280;63447;49.446;8.666;2024-03-17T08:26:23;101023.88;;;10.59;74.49
74895;BME280;63447;49.446;8.666;2024-03-17T08:28:51;101024.28;;;10.74;74.01
74895;BME280;63447;49.446;8.666;2024-03-17T08:31:17;101025.03;;;10.66;74.50
74895;BME280;63447;49.446;8.666;2024-03-17T08:33:42;101022.00;;;10.76;75.76
74895;BME280;63447;49.446;8.666;2024-03-17T08:36:10;101020.28;;;10.89;77.40
74895;BME280;63447;49.446;8.666;2024-03-17T08:38:38;101013.19;;;11.05;76.28
74895;BME280;63447;49.446;8.666;2024-03-17T08:41:08;101012.75;;;11.20;74.68
74895;BME280;63447;49.446;8.666;2024-03-17T08:43:37;101008.06;;;11.30;73.49
74895;BME280;63447;49.446;8.666;2024-03-17T08:46:11;101013.09;;;11.28;72.65
74895;BME280;63447;49.446;8.666;2024-03-17T08:48:39;101000.88;;;11.20;74.48
74895;BME280;63447;49.446;8.666;2024-03-17T08:51:06;100967.84;;;10.98;75.00
74895;BME280;63447;49.446;8.666;2024-03-17T08:53:34;100990.50;;;11.26;73.83
74895;BME280;63447;49.446;8.666;2024-03-17T08:56:00;100992.19;;;11.52;72.13
74895;BME280;63447;49.446;8.666;2024-03-17T08:58:31;100984.22;;;11.60;70.91
74895;BME280;63447;49.446;8.666;2024-03-17T09:01:03;101005.03;;;11.57;71.25
74895;BME280;63447;49.446;8.666;2024-03-17T09:03:28;100986.19;;;11.59;70.22
74895;BME280;63447;49.446;8.666;2024-03-17T09:05:53;100970.56;;;11.72;70.46
74895;BME280;63447;49.446;8.666;2024-03-17T09:08:24;100995.63;;;11.75;72.62
74895;BME280;63447;49.446;8.666;2024-03-17T09:10:53;100974.03;;;11.86;70.29
74895;BME280;63447;49.446;8.666;2024-03-17T09:13:23;100989.63;;;12.16;70.97
74895;BME280;63447;49.446;8.666;2024-03-17T09:15:58;100997.41;;;12.32;69.72
74895;BME280;63447;49.446;8.666;2024-03-17T09:18:25;100987.59;;;12.51;69.25
74895;BME280;63447;49.446;8.666;2024-03-17T09:21:02;100987.09;;;12.58;66.19
74895;BME280;63447;49.446;8.666;2024-03-17T09:23:30;100977.47;;;12.55;67.65
74895;BME280;63447;49.446;8.666;2024-03-17T09:26:04;100974.38;;;12.66;70.02
74895;BME280;63447;49.446;8.666;2024-03-17T09:28:33;100976.81;;;12.67;70.07
74895;BME280;63447;49.446;8.666;2024-03-17T09:30:58;100974.53;;;12.61;70.36
74895;BME280;63447;49.446;8.666;2024-03-17T09:33:25;100939.22;;;12.57;69.43
74895;BME280;63447;49.446;8.666;2024-03-17T09:36:05;100965.75;;;12.97;69.22
74895;BME280;63447;49.446;8.666;2024-03-17T09:38:35;100971.81;;;12.90;68.47
74895;BME280;63447;49.446;8.666;2024-03-17T09:41:01;100980.31;;;12.85;69.16
74895;BME280;63447;49.446;8.666;2024-03-17T09:43:36;100963.69;;;12.85;69.50
74895;BME280;63447;49.446;8.666;2024-03-17T09:46:04;100978.69;;;13.13;69.28
74895;BME280;63447;49.446;8.666;2024-03-17T09:48:32;100969.84;;;12.99;68.11
74895;BME280;63447;49.446;8.666;2024-03-17T09:51:02;100970.91;;;13.15;68.39
74895;BME280;63447;49.446;8.666;2024-03-17T09:53:34;100954.91;;;13.12;69.02
74895;BME280;63447;49.446;8.666;2024-03-17T09:58:34;100968.13;;;13.45;67.13
74895;BME280;63447;49.446;8.666;2024-03-17T10:00:59;100968.97;;;13.57;67.51
74895;BME280;63447;49.446;8.666;2024-03-17T10:03:44;100989.53;;;13.77;64.72
74895;BME280;63447;49.446;8.666;2024-03-17T10:06:14;100980.34;;;13.85;67.22
74895;BME280;63447;49.446;8.666;2024-03-17T10:08:49;100982.75;;;14.08;66.52
74895;BME280;63447;49.446;8.666;2024-03-17T10:11:20;100967.53;;;14.14;65.97
74895;BME280;63447;49.446;8.666;2024-03-17T10:13:58;100960.88;;;14.27;65.20
74895;BME280;63447;49.446;8.666;2024-03-17T10:16:28;100972.91;;;13.98;64.93
74895;BME280;63447;49.446;8.666;2024-03-17T10:19:15;100971.41;;;13.59;68.03
74895;BME280;63447;49.446;8.666;2024-03-17T10:21:45;100962.31;;;14.12;66.61
74895;BME280;63447;49.446;8.666;2024-03-17T10:29:30;100960.53;;;14.74;63.17
74895;BME280;63447;49.446;8.666;2024-03-17T10:32:15;100970.38;;;14.71;63.20
74895;BME280;63447;49.446;8.666;2024-03-17T10:34:42;100986.72;;;15.21;61.09
74895;BME280;63447;49.446;8.666;2024-03-17T10:37:14;100978.19;;;15.79;61.74
74895;BME280;63447;49.446;8.666;2024-03-17T10:39:41;100977.28;;;15.75;61.61
74895;BME280;63447;49.446;8.666;2024-03-17T10:42:12;100982.13;;;15.78;59.51
74895;BME280;63447;49.446;8.666;2024-03-17T10:44:41;100976.97;;;16.20;58.75
74895;BME280;63447;49.446;8.666;2024-03-17T10:47:07;100975.91;;;16.24;57.75
74895;BME280;63447;49.446;8.666;2024-03-17T10:49:38;100977.06;;;16.23;58.46
74895;BME280;63447;49.446;8.666;2024-03-17T10:52:07;100959.56;;;16.67;57.97
74895;BME280;63447;49.446;8.666;2024-03-17T10:54:34;100983.63;;;16.59;57.92
74895;BME280;63447;49.446;8.666;2024-03-17T10:57:23;100976.28;;;16.67;56.97
74895;BME280;63447;49.446;8.666;2024-03-17T10:59:51;100970.81;;;16.42;57.16
74895;BME280;63447;49.446;8.666;2024-03-17T11:02:25;100951.22;;;16.39;58.09
74895;BME280;63447;49.446;8.666;2024-03-17T11:04:58;100966.63;;;16.48;57.75
74895;BME280;63447;49.446;8.666;2024-03-17T11:07:24;100952.13;;;16.43;55.76
74895;BME280;63447;49.446;8.666;2024-03-17T11:09:53;100958.06;;;15.98;55.52
74895;BME280;63447;49.446;8.666;2024-03-17T11:12:51;100960.69;;;15.78;55.27
74895;BME280;63447;49.446;8.666;2024-03-17T11:17:49;100949.00;;;15.60;57.31
74895;BME280;63447;49.446;8.666;2024-03-17T11:20:25;100937.06;;;15.60;57.53
74895;BME280;63447;49.446;8.666;2024-03-17T11:22:55;100929.31;;;15.93;57.24
74895;BME280;63447;49.446;8.666;2024-03-17T11:27:54;100920.81;;;16.02;53.92
74895;BME280;63447;49.446;8.666;2024-03-17T11:41:39;100923.72;;;16.21;56.46
74895;BME280;63447;49.446;8.666;2024-03-17T11:49:23;100927.91;;;16.00;54.41
74895;BME280;63447;49.446;8.666;2024-03-17T11:51:50;100916.63;;;15.16;54.36
74895;BME280;63447;49.446;8.666;2024-03-17T11:54:20;100928.38;;;15.89;53.92
74895;BME280;63447;49.446;8.666;2024-03-17T11:56:50;100940.34;;;15.38;51.40
74895;BME280;63447;49.446;8.666;2024-03-17T11:59:17;100919.88;;;14.12;52.98
74895;BME280;63447;49.446;8.666;2024-03-17T12:01:52;100917.72;;;14.75;52.51
74895;BME280;63447;49.446;8.666;2024-03-17T12:04:19;100923.13;;;15.20;50.39
74895;BME280;63447;49.446;8.666;2024-03-17T12:06:47;100917.75;;;15.39;52.57
74895;BME280;63447;49.446;8.666;2024-03-17T12:09:21;100924.22;;;15.55;52.85
74895;BME280;63447;49.446;8.666;2024-03-17T12:14:29;100890.63;;;14.47;53.33
74895;BME280;63447;49.446;8.666;2024-03-17T12:16:57;100909.91;;;15.17;51.99
74895;BME280;63447;49.446;8.666;2024-03-17T12:19:25;100916.31;;;14.93;52.31
74895;BME280;63447;49.446;8.666;2024-03-17T12:21:55;100907.59;;;15.31;52.61
74895;BME280;63447;49.446;8.666;2024-03-17T12:24:29;100908.31;;;14.43;54.86
74895;BME280;63447;49.446;8.666;2024-03-17T12:26:58;100898.19;;;14.38;55.49
74895;BME280;63447;49.446;8.666;2024-03-17T12:29:37;100908.19;;;14.88;55.52
74895;BME280;63447;49.446;8.666;2024-03-17T12:32:16;100900.44;;;14.57;54.93
74895;BME280;63447;49.446;8.666;2024-03-17T12:34:46;100904.28;;;14.52;55.10
74895;BME280;63447;49.446;8.666;2024-03-17T12:37:20;100895.34;;;14.83;55.76
74895;BME280;63447;49.446;8.666;2024-03-17T12:39:46;100892.56;;;14.83;54.65
74895;BME280;63447;49.446;8.666;2024-03-17T12:44:50;100885.97;;;15.00;54.47
74895;BME280;63447;49.446;8.666;2024-03-17T12:49:52;100882.50;;;14.42;54.26
74895;BME280;63447;49.446;8.666;2024-03-17T12:55:02;100874.75;;;14.72;54.63
74895;BME280;63447;49.446;8.666;2024-03-17T12:57:47;100875.00;;;14.79;54.95
74895;BME280;63447;49.446;8.666;2024-03-17T13:00:31;100873.13;;;14.83;54.87
74895;BME280;63447;49.446;8.666;2024-03-17T13:03:00;100883.53;;;14.99;55.66
74895;BME280;63447;49.446;8.666;2024-03-17T13:05:26;100864.53;;;15.13;54.71
74895;BME280;63447;49.446;8.666;2024-03-17T13:07:51;100874.81;;;15.24;54.17
74895;BME280;63447;49.446;8.666;2024-03-17T13:10:20;100856.16;;;15.25;54.84
74895;BME280;63447;49.446;8.666;2024-03-17T13:12:47;100858.44;;;15.35;54.18
74895;BME280;63447;49.446;8.666;2024-03-17T13:15:14;100856.81;;;15.34;53.41
74895;BME280;63447;49.446;8.666;2024-03-17T13:17:46;100861.78;;;15.41;52.89
74895;BME280;63447;49.446;8.666;2024-03-17T13:20:15;100854.34;;;15.57;53.07
74895;BME280;63447;49.446;8.666;2024-03-17T13:22:45;100852.16;;;15.38;52.01
74895;BME280;63447;49.446;8.666;2024-03-17T13:25:17;100853.03;;;15.26;52.44
74895;BME280;63447;49.446;8.666;2024-03-17T13:27:44;100854.25;;;15.41;52.71
74895;BME280;63447;49.446;8.666;2024-03-17T13:30:20;100833.50;;;15.39;52.86
74895;BME280;63447;49.446;8.666;2024-03-17T13:32:50;100826.78;;;15.40;53.00
74895;BME280;63447;49.446;8.666;2024-03-17T13:35:25;100839.84;;;15.11;54.28
74895;BME280;63447;49.446;8.666;2024-03-17T13:37:51;100836.53;;;14.93;53.56
74895;BME280;63447;49.446;8.666;2024-03-17T13:40:19;100835.19;;;14.75;53.58